createdAt,value
2023-01-29T00:01:58.522Z,25.00
2023-01-29T00:04:25.228Z,23.30
2023-01-29T00:06:51.852Z,25.33
2023-01-29T00:09:18.895Z,25.73
2023-01-29T00:11:45.529Z,22.58
2023-01-29T00:14:12.273Z,23.17
2023-01-29T00:16:38.937Z,21.73
2023-01-29T00:19:05.730Z,25.90
2023-01-29T00:21:32.363Z,23.70
2023-01-29T00:24:00.031Z,23.73
2023-01-29T00:26:27.474Z,24.17
2023-01-29T00:28:54.573Z,19.98
2023-01-29T00:31:25.228Z,22.58
2023-01-29T00:33:52.485Z,23.70
2023-01-29T00:36:21.005Z,26.45
2023-01-29T00:38:54.911Z,19.00
2023-01-29T00:41:41.527Z,26.63
2023-01-29T00:44:26.626Z,21.33
2023-01-29T00:46:53.529Z,22.97
2023-01-29T00:49:20.672Z,22.67
2023-01-29T00:52:06.213Z,21.38
2023-01-29T00:54:33.277Z,19.90
2023-01-29T00:57:00.838Z,21.92
2023-01-29T00:59:27.689Z,21.38
2023-01-29T01:02:13.410Z,25.80
2023-01-29T01:04:40.493Z,20.15
2023-01-29T01:07:07.411Z,24.15
2023-01-29T01:09:56.196Z,19.33
2023-01-29T01:12:23.151Z,20.23
2023-01-29T01:14:50.096Z,25.20
2023-01-29T01:17:17.284Z,27.33
2023-01-29T01:19:43.907Z,22.23
2023-01-29T01:22:11.067Z,25.65
2023-01-29T01:24:38.336Z,22.65
2023-01-29T01:27:05.760Z,22.95
2023-01-29T01:29:32.811Z,20.08
2023-01-29T01:32:00.170Z,21.70
2023-01-29T01:34:27.177Z,19.80
2023-01-29T01:36:55.906Z,18.75
2023-01-29T01:39:23.850Z,17.55
2023-01-29T01:41:53.609Z,17.75
2023-01-29T01:44:51.521Z,19.60
2023-01-29T01:47:23.762Z,21.75
2023-01-29T01:49:51.382Z,17.75
2023-01-29T01:52:19.559Z,19.65
2023-01-29T01:54:46.762Z,19.83
2023-01-29T01:57:18.453Z,17.83
2023-01-29T01:59:53.489Z,19.25
2023-01-29T02:02:39.420Z,18.88
2023-01-29T02:05:26.043Z,20.65
2023-01-29T02:08:11.434Z,21.73
2023-01-29T02:10:49.788Z,20.75
2023-01-29T02:13:19.529Z,19.73
2023-01-29T02:15:48.582Z,20.35
2023-01-29T02:18:20.239Z,19.65
2023-01-29T02:21:15.185Z,19.08
2023-01-29T02:24:11.433Z,19.70
2023-01-29T02:26:50.060Z,23.65
2023-01-29T02:29:47.347Z,20.25
2023-01-29T02:32:23.512Z,20.88
2023-01-29T02:35:09.101Z,22.23
2023-01-29T02:37:50.375Z,21.17
2023-01-29T02:40:44.066Z,21.83
2023-01-29T02:43:26.093Z,21.90
2023-01-29T02:46:16.917Z,21.83
2023-01-29T02:49:18.894Z,23.00
2023-01-29T02:52:11.533Z,21.40
2023-01-29T02:54:51.753Z,24.15
2023-01-29T02:57:29.290Z,21.75
2023-01-29T03:00:02.835Z,20.30
2023-01-29T03:02:40.270Z,21.05
2023-01-29T03:05:13.169Z,19.13
2023-01-29T03:07:46.292Z,20.13
2023-01-29T03:11:06.918Z,18.63
2023-01-29T03:13:45.380Z,18.38
2023-01-29T03:16:19.272Z,20.17
2023-01-29T03:18:54.132Z,17.52
2023-01-29T03:21:44.387Z,16.92
2023-01-29T03:24:32.235Z,21.20
2023-01-29T03:27:22.977Z,17.17
2023-01-29T03:30:10.182Z,18.95
2023-01-29T03:33:02.904Z,20.92
2023-01-29T03:35:39.580Z,20.52
2023-01-29T03:38:10.159Z,18.02
2023-01-29T03:40:52.497Z,19.75
2023-01-29T03:43:26.330Z,20.08
2023-01-29T03:46:19.122Z,21.30
2023-01-29T03:48:45.896Z,18.10
2023-01-29T03:51:27.968Z,19.75
2023-01-29T03:54:20.171Z,21.67
2023-01-29T03:57:15.568Z,22.38
2023-01-29T04:00:19.249Z,19.63
2023-01-29T04:03:26.859Z,24.40
2023-01-29T04:06:09.946Z,20.50
2023-01-29T04:09:22.143Z,21.65
2023-01-29T04:12:09.124Z,19.27
2023-01-29T04:14:39.422Z,18.83
2023-01-29T04:17:19.966Z,18.95
2023-01-29T04:19:56.909Z,19.77
2023-01-29T04:22:31.249Z,20.42
2023-01-29T04:25:02.690Z,19.75
2023-01-29T04:27:37.771Z,21.05
2023-01-29T04:30:18.115Z,20.10
2023-01-29T04:32:55.311Z,17.75
2023-01-29T04:35:30.181Z,17.70
2023-01-29T04:38:06.685Z,18.77
2023-01-29T04:43:27.191Z,17.27
2023-01-29T04:46:12.888Z,21.67
2023-01-29T04:48:42.566Z,18.45
2023-01-29T04:51:12.033Z,17.20
2023-01-29T04:53:59.976Z,16.58
2023-01-29T04:56:39.038Z,15.13
2023-01-29T04:59:09.958Z,18.80
2023-01-29T05:01:38.605Z,20.10
2023-01-29T05:04:10.981Z,17.75
2023-01-29T05:06:39.350Z,20.75
2023-01-29T05:09:07.390Z,17.25
2023-01-29T05:11:35.830Z,18.75
2023-01-29T05:14:05.455Z,13.80
2023-01-29T05:16:42.114Z,20.23
2023-01-29T05:19:14.654Z,16.85
2023-01-29T05:21:44.788Z,17.95
2023-01-29T05:24:11.492Z,18.48
2023-01-29T05:26:56.633Z,15.70
2023-01-29T05:29:23.365Z,22.08
2023-01-29T05:31:50.019Z,17.42
2023-01-29T05:34:17.026Z,21.27
2023-01-29T05:36:43.721Z,21.33
2023-01-29T05:39:10.428Z,18.55
2023-01-29T05:41:37.124Z,19.02
2023-01-29T05:44:03.889Z,17.73
2023-01-29T05:46:30.595Z,17.00
2023-01-29T05:48:57.384Z,19.27
2023-01-29T05:51:23.908Z,20.38
2023-01-29T05:53:50.758Z,19.05
2023-01-29T05:56:17.403Z,19.60
2023-01-29T05:58:44.017Z,19.42
2023-01-29T06:01:13.699Z,20.63
2023-01-29T06:03:41.431Z,21.15
2023-01-29T06:06:08.832Z,20.70
2023-01-29T06:08:36.153Z,17.20
2023-01-29T06:11:03.015Z,18.90
2023-01-29T06:13:29.603Z,20.58
2023-01-29T06:15:56.292Z,18.63
2023-01-29T06:18:23.063Z,22.55
2023-01-29T06:20:49.589Z,17.52
2023-01-29T06:23:16.303Z,22.02
2023-01-29T06:25:43.086Z,22.13
2023-01-29T06:28:09.744Z,18.98
2023-01-29T06:30:36.363Z,21.80
2023-01-29T06:33:03.210Z,15.07
2023-01-29T06:35:30.163Z,18.10
2023-01-29T06:37:56.897Z,17.83
2023-01-29T06:40:23.576Z,17.63
2023-01-29T06:42:50.285Z,17.63
2023-01-29T06:45:16.881Z,18.25
2023-01-29T06:47:43.625Z,14.88
2023-01-29T06:50:11.599Z,20.23
2023-01-29T06:52:38.292Z,19.13
2023-01-29T06:55:05.423Z,20.20
2023-01-29T06:57:32.061Z,16.80
2023-01-29T06:59:58.626Z,15.82
2023-01-29T07:02:25.388Z,18.20
2023-01-29T07:04:52.033Z,18.98
2023-01-29T07:07:18.840Z,16.45
2023-01-29T07:09:45.709Z,14.60
2023-01-29T07:12:12.326Z,20.58
2023-01-29T07:14:38.973Z,15.07
2023-01-29T07:17:05.745Z,17.85
2023-01-29T07:19:33.058Z,18.55
2023-01-29T07:22:02.413Z,18.35
2023-01-29T07:24:29.274Z,17.83
2023-01-29T07:26:56.093Z,18.23
2023-01-29T07:29:22.747Z,17.13
2023-01-29T07:31:49.566Z,16.92
2023-01-29T07:34:16.328Z,16.90
2023-01-29T07:36:43.047Z,17.52
2023-01-29T07:39:09.736Z,16.60
2023-01-29T07:41:36.457Z,19.25
2023-01-29T07:44:10.836Z,18.52
2023-01-29T07:46:37.505Z,15.73
2023-01-29T07:49:04.093Z,21.60
2023-01-29T07:51:30.797Z,20.08
2023-01-29T07:53:57.390Z,21.00
2023-01-29T07:56:24.075Z,18.20
2023-01-29T07:58:50.689Z,16.95
2023-01-29T08:01:17.430Z,16.23
2023-01-29T08:03:44.074Z,17.98
2023-01-29T08:06:10.724Z,18.38
2023-01-29T08:08:37.306Z,14.45
2023-01-29T08:11:05.665Z,16.75
2023-01-29T08:13:32.680Z,17.90
2023-01-29T08:16:01.210Z,18.10
2023-01-29T08:18:27.887Z,17.88
2023-01-29T08:21:00.405Z,21.02
2023-01-29T08:23:27.166Z,19.52
2023-01-29T08:25:53.858Z,18.27
2023-01-29T08:28:20.720Z,18.08
2023-01-29T08:30:47.457Z,17.27
2023-01-29T08:33:14.153Z,18.48
2023-01-29T08:35:41.376Z,19.60
2023-01-29T08:38:10.195Z,20.60
2023-01-29T08:40:37.480Z,18.52
2023-01-29T08:43:09.517Z,18.80
2023-01-29T08:45:40.220Z,17.75
2023-01-29T08:48:07.804Z,18.85
2023-01-29T08:50:35.113Z,18.17
2023-01-29T08:53:04.361Z,19.05
2023-01-29T08:55:31.001Z,19.65
2023-01-29T08:57:57.695Z,17.90
2023-01-29T09:00:24.689Z,14.60
2023-01-29T09:02:51.349Z,15.27
2023-01-29T09:05:18.533Z,16.55
2023-01-29T09:07:45.349Z,17.67
2023-01-29T09:10:12.322Z,18.42
2023-01-29T09:12:39.260Z,21.73
2023-01-29T09:15:06.336Z,18.77
2023-01-29T09:17:33.039Z,19.60
2023-01-29T09:19:59.706Z,17.83
2023-01-29T09:22:26.403Z,20.15
2023-01-29T09:24:52.997Z,19.48
2023-01-29T09:27:19.768Z,15.88
2023-01-29T09:29:46.365Z,16.85
2023-01-29T09:32:13.133Z,20.23
2023-01-29T09:34:40.157Z,19.75
2023-01-29T09:37:06.878Z,17.88
2023-01-29T09:39:33.816Z,17.38
2023-01-29T09:42:24.543Z,15.75
2023-01-29T09:45:03.886Z,17.52
2023-01-29T09:47:33.447Z,18.73
2023-01-29T09:50:26.415Z,15.63
2023-01-29T09:53:02.084Z,20.77
2023-01-29T09:55:43.738Z,14.90
2023-01-29T09:58:28.103Z,20.73
2023-01-29T10:01:04.691Z,21.80
2023-01-29T10:03:34.156Z,18.05
2023-01-29T10:06:23.307Z,19.50
2023-01-29T10:09:25.834Z,17.55
2023-01-29T10:12:05.673Z,21.02
2023-01-29T10:14:41.775Z,19.55
2023-01-29T10:17:31.090Z,23.88
2023-01-29T10:20:39.105Z,21.38
2023-01-29T10:23:11.478Z,21.20
2023-01-29T10:25:41.822Z,18.58
2023-01-29T10:28:21.490Z,16.65
2023-01-29T10:30:57.619Z,16.90
2023-01-29T10:33:49.389Z,15.70
2023-01-29T10:36:38.589Z,20.48
2023-01-29T10:39:05.256Z,19.38
2023-01-29T10:42:06.604Z,19.30
2023-01-29T10:44:41.610Z,19.40
2023-01-29T10:47:42.234Z,18.67
2023-01-29T10:50:28.504Z,19.23
2023-01-29T10:53:07.298Z,17.50
2023-01-29T10:55:36.890Z,13.25
2023-01-29T10:58:24.707Z,26.60
2023-01-29T11:00:51.561Z,22.60
2023-01-29T11:06:17.333Z,24.88
2023-01-29T11:08:54.318Z,16.55
2023-01-29T11:11:26.277Z,13.73
2023-01-29T11:14:00.366Z,13.18
2023-01-29T11:16:30.069Z,17.35
2023-01-29T11:19:00.081Z,14.63
2023-01-29T11:21:28.518Z,14.35
2023-01-29T11:24:07.232Z,14.77
2023-01-29T11:26:38.083Z,16.75
2023-01-29T11:29:04.923Z,15.40
2023-01-29T11:31:38.944Z,20.90
2023-01-29T11:34:16.650Z,16.75
2023-01-29T11:36:45.026Z,18.15
2023-01-29T11:39:17.475Z,16.48
2023-01-29T11:41:53.182Z,19.40
2023-01-29T11:46:48.752Z,20.95
2023-01-29T11:49:28.022Z,21.23
2023-01-29T11:51:56.501Z,19.38
2023-01-29T11:54:28.089Z,21.63
2023-01-29T11:56:56.111Z,20.48
2023-01-29T11:59:54.996Z,21.15
2023-01-29T12:02:28.074Z,19.27
2023-01-29T12:05:00.418Z,21.67
2023-01-29T12:07:28.792Z,17.65
2023-01-29T12:09:58.085Z,19.80
2023-01-29T12:12:30.127Z,20.00
2023-01-29T12:15:05.133Z,16.92
2023-01-29T12:17:35.387Z,18.58
2023-01-29T12:20:13.548Z,24.65
2023-01-29T12:22:53.410Z,16.80
2023-01-29T12:25:26.017Z,19.20
2023-01-29T12:28:27.957Z,17.23
2023-01-29T12:31:11.530Z,16.30
2023-01-29T12:33:49.441Z,14.98
2023-01-29T12:36:28.988Z,21.50
2023-01-29T12:38:55.983Z,18.92
2023-01-29T12:41:33.756Z,21.50
2023-01-29T12:44:15.733Z,20.55
2023-01-29T12:46:50.963Z,17.02
2023-01-29T12:51:59.534Z,20.58
2023-01-29T12:54:36.982Z,18.30
2023-01-29T12:57:28.714Z,20.27
2023-01-29T13:00:02.543Z,18.25
2023-01-29T13:02:39.827Z,22.27
2023-01-29T13:05:24.641Z,21.45
2023-01-29T13:08:01.374Z,17.65
2023-01-29T13:10:35.060Z,20.02
2023-01-29T13:13:07.303Z,19.63
2023-01-29T13:15:39.758Z,20.75
2023-01-29T13:18:31.209Z,18.70
2023-01-29T13:20:59.388Z,18.98
2023-01-29T13:23:34.677Z,21.55
2023-01-29T13:26:01.828Z,16.70
2023-01-29T13:28:28.557Z,19.98
2023-01-29T13:31:24.815Z,18.05
2023-01-29T13:34:14.933Z,22.15
2023-01-29T13:36:57.185Z,19.10
2023-01-29T13:39:32.985Z,19.38
2023-01-29T13:42:02.916Z,18.85
2023-01-29T13:44:39.692Z,18.23
2023-01-29T13:47:10.790Z,18.55
2023-01-29T13:49:42.330Z,20.02
2023-01-29T13:52:27.653Z,17.13
2023-01-29T13:55:01.655Z,20.17
2023-01-29T13:57:37.240Z,21.48
2023-01-29T14:02:32.069Z,18.40
2023-01-29T14:05:29.831Z,24.75
2023-01-29T14:08:17.445Z,19.27
2023-01-29T14:10:44.661Z,18.52
2023-01-29T14:13:23.512Z,17.65
2023-01-29T14:15:59.197Z,18.02
2023-01-29T14:18:28.403Z,18.77
2023-01-29T14:21:17.775Z,18.23
2023-01-29T14:23:53.546Z,17.55
2023-01-29T14:26:45.531Z,18.40
2023-01-29T14:29:14.438Z,18.85
2023-01-29T14:31:54.731Z,20.45
2023-01-29T14:34:26.829Z,18.85
2023-01-29T14:36:56.901Z,16.70
2023-01-29T14:39:31.217Z,18.23
2023-01-29T14:41:59.510Z,19.73
2023-01-29T14:44:44.536Z,20.25
2023-01-29T14:47:32.926Z,19.20
2023-01-29T14:50:01.919Z,20.60
2023-01-29T14:52:35.933Z,19.52
2023-01-29T14:55:07.712Z,19.60
2023-01-29T14:57:36.377Z,17.30
2023-01-29T15:00:06.450Z,20.88
2023-01-29T15:02:41.245Z,18.65
2023-01-29T15:05:13.437Z,20.23
2023-01-29T15:07:48.872Z,21.10
2023-01-29T15:10:25.222Z,21.73
2023-01-29T15:13:13.871Z,19.42
2023-01-29T15:16:13.305Z,18.15
2023-01-29T15:18:43.969Z,19.27
2023-01-29T15:21:18.689Z,19.70
2023-01-29T15:23:48.812Z,22.03
2023-01-29T15:26:21.712Z,23.77
2023-01-29T15:29:03.524Z,22.27
2023-01-29T15:31:31.286Z,22.25
2023-01-29T15:34:03.116Z,21.52
2023-01-29T15:36:31.610Z,20.58
2023-01-29T15:39:18.915Z,19.02
2023-01-29T15:41:46.018Z,18.42
2023-01-29T15:44:19.150Z,20.10
2023-01-29T15:46:51.021Z,20.90
2023-01-29T15:49:26.040Z,18.92
2023-01-29T15:51:57.557Z,20.88
2023-01-29T15:54:24.979Z,22.35
2023-01-29T15:56:53.453Z,20.65
2023-01-29T15:59:26.596Z,22.65
2023-01-29T16:01:54.079Z,21.02
2023-01-29T16:04:30.976Z,25.38
2023-01-29T16:07:00.469Z,23.63
2023-01-29T16:09:28.837Z,20.52
2023-01-29T16:11:58.634Z,22.42
2023-01-29T16:14:26.804Z,23.45
2023-01-29T16:16:53.966Z,20.40
2023-01-29T16:19:26.154Z,19.00
2023-01-29T16:22:05.902Z,24.98
2023-01-29T16:24:36.309Z,19.75
2023-01-29T16:27:12.761Z,20.25
2023-01-29T16:29:39.863Z,32.38
2023-01-29T16:32:06.975Z,17.85
2023-01-29T16:34:38.652Z,20.63
2023-01-29T16:37:16.462Z,19.60
2023-01-29T16:39:49.058Z,20.02
2023-01-29T16:42:17.385Z,19.45
2023-01-29T16:44:52.069Z,20.63
2023-01-29T16:47:32.406Z,21.40
2023-01-29T16:50:17.625Z,19.25
2023-01-29T16:53:00.333Z,21.10
2023-01-29T16:55:35.370Z,20.80
2023-01-29T16:58:12.077Z,22.70
2023-01-29T17:00:47.764Z,22.42
2023-01-29T17:05:42.562Z,17.48
2023-01-29T17:08:23.364Z,23.63
2023-01-29T17:10:50.192Z,34.92
2023-01-29T17:13:41.745Z,26.50
2023-01-29T17:16:49.045Z,24.38
2023-01-29T17:19:22.575Z,26.88
2023-01-29T17:21:49.602Z,32.25
2023-01-29T17:24:16.355Z,26.58
2023-01-29T17:26:43.534Z,26.80
2023-01-29T17:29:15.564Z,22.42
2023-01-29T17:31:43.377Z,24.40
2023-01-29T17:34:14.855Z,20.42
2023-01-29T17:36:45.172Z,21.52
2023-01-29T17:39:19.734Z,19.23
2023-01-29T17:41:54.451Z,27.40
2023-01-29T17:44:22.244Z,23.37
2023-01-29T17:46:49.574Z,24.25
2023-01-29T17:49:28.466Z,22.13
2023-01-29T17:51:57.043Z,20.08
2023-01-29T17:54:25.544Z,21.52
2023-01-29T17:56:53.057Z,23.90
2023-01-29T17:59:24.852Z,20.13
2023-01-29T18:01:51.947Z,24.02
2023-01-29T18:04:18.757Z,23.75
2023-01-29T18:06:48.575Z,23.70
2023-01-29T18:09:18.967Z,25.65
2023-01-29T18:11:46.606Z,28.95
2023-01-29T18:14:14.727Z,30.77
2023-01-29T18:16:43.186Z,34.95
2023-01-29T18:19:13.937Z,37.85
2023-01-29T18:21:40.587Z,29.92
2023-01-29T18:24:08.203Z,34.03
2023-01-29T18:26:36.007Z,28.80
2023-01-29T18:29:03.352Z,23.48
2023-01-29T18:31:30.295Z,22.42
2023-01-29T18:33:56.990Z,24.20
2023-01-29T18:36:23.985Z,23.35
2023-01-29T18:38:50.579Z,19.73
2023-01-29T18:41:17.233Z,19.23
2023-01-29T18:43:44.323Z,21.67
2023-01-29T18:46:11.168Z,20.42
2023-01-29T18:48:37.886Z,16.63
2023-01-29T18:51:04.946Z,18.92
2023-01-29T18:53:33.536Z,20.95
2023-01-29T18:56:05.245Z,23.55
2023-01-29T18:58:36.661Z,22.50
2023-01-29T19:01:10.736Z,19.25
2023-01-29T19:03:42.044Z,17.50
2023-01-29T19:06:10.751Z,17.75
2023-01-29T19:08:37.784Z,23.80
2023-01-29T19:11:08.099Z,25.73
2023-01-29T19:13:36.374Z,22.27
2023-01-29T19:16:06.858Z,23.52
2023-01-29T19:18:33.617Z,24.85
2023-01-29T19:21:00.427Z,28.42
2023-01-29T19:23:27.084Z,26.02
2023-01-29T19:25:57.157Z,28.48
2023-01-29T19:28:23.766Z,28.95
2023-01-29T19:30:50.442Z,27.45
2023-01-29T19:33:17.162Z,32.08
2023-01-29T19:35:45.417Z,27.67
2023-01-29T19:38:12.212Z,27.52
2023-01-29T19:40:38.979Z,23.73
2023-01-29T19:43:05.926Z,19.52
2023-01-29T19:45:49.645Z,18.15
2023-01-29T19:48:21.425Z,21.63
2023-01-29T19:50:55.860Z,21.02
2023-01-29T19:53:23.136Z,18.95
2023-01-29T19:56:02.714Z,19.40
2023-01-29T19:58:30.597Z,25.80
2023-01-29T20:00:58.812Z,22.45
2023-01-29T20:03:26.432Z,25.55
2023-01-29T20:05:53.340Z,26.15
2023-01-29T20:08:20.663Z,26.92
2023-01-29T20:10:47.937Z,31.77
2023-01-29T20:13:16.191Z,30.08
2023-01-29T20:15:47.591Z,34.90
2023-01-29T20:18:15.087Z,35.67
2023-01-29T20:20:43.244Z,39.22
2023-01-29T20:23:10.972Z,38.45
2023-01-29T20:25:38.065Z,30.20
2023-01-29T20:28:07.597Z,36.17
2023-01-29T20:30:35.088Z,29.80
2023-01-29T20:33:02.843Z,21.20
2023-01-29T20:35:31.082Z,24.55
2023-01-29T20:37:59.098Z,23.52
2023-01-29T20:40:26.235Z,21.27
2023-01-29T20:42:53.285Z,23.98
2023-01-29T20:45:20.402Z,21.10
2023-01-29T20:47:47.082Z,19.15
2023-01-29T20:50:16.242Z,22.30
2023-01-29T20:52:43.129Z,22.33
2023-01-29T20:55:12.098Z,24.17
2023-01-29T20:57:39.490Z,22.50
2023-01-29T21:00:07.609Z,24.88
2023-01-29T21:02:35.161Z,30.60
2023-01-29T21:05:02.195Z,26.60
2023-01-29T21:07:28.947Z,23.70
2023-01-29T21:09:55.513Z,27.92
2023-01-29T21:12:22.210Z,24.58
2023-01-29T21:14:48.791Z,27.92
2023-01-29T21:17:15.582Z,23.15
2023-01-29T21:19:43.994Z,26.73
2023-01-29T21:22:10.744Z,24.40
2023-01-29T21:24:37.331Z,22.52
2023-01-29T21:27:04.007Z,22.38
2023-01-29T21:29:30.719Z,21.75
2023-01-29T21:31:57.482Z,25.83
2023-01-29T21:34:24.354Z,18.52
2023-01-29T21:36:51.089Z,21.98
2023-01-29T21:39:17.929Z,19.05
2023-01-29T21:42:04.197Z,21.52
2023-01-29T21:44:33.450Z,24.15
2023-01-29T21:47:00.857Z,24.02
2023-01-29T21:49:27.862Z,24.33
2023-01-29T21:51:54.697Z,24.95
2023-01-29T21:54:21.466Z,24.33
2023-01-29T21:56:48.190Z,30.48
2023-01-29T21:59:14.974Z,31.85
2023-01-29T22:01:41.717Z,29.20
2023-01-29T22:04:09.719Z,23.63
2023-01-29T22:06:36.304Z,21.58
2023-01-29T22:09:03.116Z,20.60
2023-01-29T22:11:30.086Z,26.40
2023-01-29T22:13:56.749Z,22.75
2023-01-29T22:16:23.362Z,25.65
2023-01-29T22:18:50.233Z,20.15
2023-01-29T22:21:16.845Z,26.45
2023-01-29T22:23:43.603Z,25.75
2023-01-29T22:26:11.001Z,29.05
2023-01-29T22:28:37.813Z,31.02
2023-01-29T22:31:05.502Z,29.42
2023-01-29T22:33:33.520Z,35.63
2023-01-29T22:36:00.550Z,34.03
2023-01-29T22:38:27.562Z,31.27
2023-01-29T22:40:55.674Z,32.92
2023-01-29T22:43:23.259Z,31.02
2023-01-29T22:45:49.792Z,27.00
2023-01-29T22:48:16.531Z,30.42
2023-01-29T22:50:49.255Z,26.42
2023-01-29T22:53:15.960Z,22.10
2023-01-29T22:55:42.580Z,26.23
2023-01-29T22:58:09.252Z,29.77
2023-01-29T23:00:35.912Z,21.13
2023-01-29T23:03:04.373Z,21.83
2023-01-29T23:05:30.972Z,22.55
2023-01-29T23:07:57.647Z,21.85
2023-01-29T23:10:24.270Z,25.27
2023-01-29T23:12:50.943Z,20.70
2023-01-29T23:15:17.577Z,28.48
2023-01-29T23:17:45.306Z,24.23
2023-01-29T23:20:12.526Z,24.15
2023-01-29T23:22:39.297Z,19.17
2023-01-29T23:25:06.484Z,23.83
2023-01-29T23:27:33.169Z,24.33
2023-01-29T23:29:59.778Z,25.35
2023-01-29T23:32:26.734Z,27.75
2023-01-29T23:34:53.424Z,21.13
2023-01-29T23:37:20.099Z,26.70
2023-01-29T23:39:46.837Z,24.90
2023-01-29T23:42:13.454Z,23.95
2023-01-29T23:44:40.953Z,21.00
2023-01-29T23:47:08.424Z,21.75
2023-01-29T23:49:35.051Z,23.08
2023-01-29T23:52:02.309Z,24.75
2023-01-29T23:54:29.315Z,22.15
2023-01-29T23:56:56.077Z,26.30
2023-01-29T23:59:22.791Z,25.08
